Time;durP1;ratioP1;P1;durP2;ratioP2;P2;SDS_P1;SDS_P2;PMS_P1;PMS_P2;Temp;Humidity;BMP_temperature;BMP_pressure;BME280_temperature;BME280_humidity;BME280_pressure;Samples;Min_cycle;Max_cycle;Signal;HPM_P1;HPM_P2
2022/09/04 00:00:31;;;;;;;;;;;14.20;99.90;;;;;;5084320;28;19928;-72
2022/09/04 00:03:24;;;;;;;;;;;14.20;99.90;;;;;;5078195;28;20298;-73
2022/09/04 00:05:51;;;;;;;;;;;14.30;99.90;;;;;;5081940;28;19925;-73
2022/09/04 00:08:25;;;;;;;;;;;14.30;99.90;;;;;;5085769;28;19930;-73
2022/09/04 00:11:11;;;;;;;;;;;14.30;99.90;;;;;;5081371;28;19928;-73
2022/09/04 00:13:47;;;;;;;;;;;14.30;99.90;;;;;;5083199;28;20701;-73
2022/09/04 00:16:21;;;;;;;;;;;14.30;99.90;;;;;;5083397;28;19924;-73
2022/09/04 00:18:50;;;;;;;;;;;14.20;99.90;;;;;;5087505;28;19928;-73
2022/09/04 00:21:26;;;;;;;;;;;14.20;99.90;;;;;;5082794;28;19981;-73
2022/09/04 00:23:59;;;;;;;;;;;14.20;99.90;;;;;;5082496;28;19931;-73
2022/09/04 00:26:37;;;;;;;;;;;14.20;99.90;;;;;;5075335;28;20298;-73
2022/09/04 00:29:18;;;;;;;;;;;14.20;99.90;;;;;;5082099;28;19924;-73
2022/09/04 00:31:57;;;;;;;;;;;14.20;99.90;;;;;;5095745;28;20338;-73
2022/09/04 00:34:47;;;;;;;;;;;14.10;99.90;;;;;;5081322;28;19924;-73
2022/09/04 00:37:22;;;;;;;;;;;14.10;99.90;;;;;;5067115;28;19971;-73
2022/09/04 00:39:48;;;;;;;;;;;14.10;99.90;;;;;;5065993;28;20301;-73
2022/09/04 00:42:20;;;;;;;;;;;14.10;99.90;;;;;;5086692;28;19998;-73
2022/09/04 00:45:10;;;;;;;;;;;14.10;99.90;;;;;;5083949;28;19935;-73
2022/09/04 00:47:47;;;;;;;;;;;14.10;99.90;;;;;;5081915;28;19931;-73
2022/09/04 00:50:17;;;;;;;;;;;14.10;99.90;;;;;;5077475;28;20014;-73
2022/09/04 00:52:55;;;;;;;;;;;14.10;99.90;;;;;;5080146;28;19964;-73
2022/09/04 00:55:39;;;;;;;;;;;14.00;99.90;;;;;;5080562;28;20011;-73
2022/09/04 00:58:23;;;;;;;;;;;13.90;99.90;;;;;;5084931;28;20317;-73
2022/09/04 01:00:56;;;;;;;;;;;13.90;99.90;;;;;;5074900;28;19925;-73
2022/09/04 01:03:34;;;;;;;;;;;13.90;99.90;;;;;;5078759;28;19928;-73
2022/09/04 01:06:24;;;;;;;;;;;13.90;99.90;;;;;;5075805;28;19948;-73
2022/09/04 01:09:04;;;;;;;;;;;13.90;99.90;;;;;;5077070;28;19932;-73
2022/09/04 01:11:42;;;;;;;;;;;13.90;99.90;;;;;;5065197;28;20823;-73
2022/09/04 01:14:32;;;;;;;;;;;13.90;99.90;;;;;;5076653;28;19956;-73
2022/09/04 01:17:09;;;;;;;;;;;13.80;99.90;;;;;;5065033;28;19974;-73
2022/09/04 01:20:00;;;;;;;;;;;13.70;99.90;;;;;;5073820;28;20039;-73
2022/09/04 01:22:52;;;;;;;;;;;13.60;99.90;;;;;;5076778;28;19928;-73
2022/09/04 01:25:23;;;;;;;;;;;13.60;99.90;;;;;;5078981;28;20031;-73
2022/09/04 01:28:00;;;;;;;;;;;13.60;99.90;;;;;;5060260;28;19928;-72
2022/09/04 01:30:29;;;;;;;;;;;13.50;99.90;;;;;;5063332;28;20118;-73
2022/09/04 01:33:11;;;;;;;;;;;13.50;99.90;;;;;;5080056;28;19924;-73
2022/09/04 01:36:01;;;;;;;;;;;13.50;99.90;;;;;;5075141;28;20402;-72
2022/09/04 01:38:32;;;;;;;;;;;13.50;99.90;;;;;;5063253;28;19934;-73
2022/09/04 01:41:10;;;;;;;;;;;13.50;99.90;;;;;;5078688;28;19924;-73
2022/09/04 01:43:42;;;;;;;;;;;13.50;99.90;;;;;;5082224;28;19936;-73
2022/09/04 01:46:14;;;;;;;;;;;13.50;99.90;;;;;;5079423;28;20402;-73
2022/09/04 01:49:09;;;;;;;;;;;13.50;99.90;;;;;;5084924;28;19935;-73
2022/09/04 01:51:40;;;;;;;;;;;13.50;99.90;;;;;;5046446;28;19924;-73
2022/09/04 01:54:32;;;;;;;;;;;13.50;99.90;;;;;;5080610;28;19925;-73
2022/09/04 01:57:16;;;;;;;;;;;13.50;99.90;;;;;;5084595;28;20312;-73
2022/09/04 01:59:53;;;;;;;;;;;13.50;99.90;;;;;;5082181;28;19931;-73
2022/09/04 02:02:34;;;;;;;;;;;13.50;99.90;;;;;;5065175;28;19924;-73
2022/09/04 02:05:09;;;;;;;;;;;13.50;99.90;;;;;;5074550;28;20398;-73
2022/09/04 02:07:45;;;;;;;;;;;13.60;99.90;;;;;;5079104;28;19975;-73
2022/09/04 02:10:32;;;;;;;;;;;13.60;99.90;;;;;;5080103;28;19950;-73
2022/09/04 02:13:06;;;;;;;;;;;13.70;99.90;;;;;;5065161;28;19928;-73
2022/09/04 02:15:57;;;;;;;;;;;13.70;99.90;;;;;;5081991;28;19936;-73
2022/09/04 02:18:47;;;;;;;;;;;13.70;99.90;;;;;;5081206;28;19964;-73
2022/09/04 02:21:24;;;;;;;;;;;13.70;99.90;;;;;;5073200;28;20050;-73
2022/09/04 02:23:56;;;;;;;;;;;13.70;99.90;;;;;;5074230;28;20079;-73
2022/09/04 02:26:54;;;;;;;;;;;13.70;99.90;;;;;;5079736;28;19924;-73
2022/09/04 02:29:40;;;;;;;;;;;13.60;99.90;;;;;;5059139;28;19930;-74
2022/09/04 02:32:12;;;;;;;;;;;13.60;99.90;;;;;;5069814;28;19924;-73
2022/09/04 02:35:03;;;;;;;;;;;13.60;99.90;;;;;;5080365;28;20307;-73
2022/09/04 02:37:37;;;;;;;;;;;13.60;99.90;;;;;;5083503;28;19938;-73
2022/09/04 02:40:12;;;;;;;;;;;13.60;99.90;;;;;;5051038;28;19925;-73
2022/09/04 02:42:50;;;;;;;;;;;13.60;99.90;;;;;;5078694;28;20550;-73
2022/09/04 02:45:51;;;;;;;;;;;13.60;99.90;;;;;;5062844;28;19925;-72
2022/09/04 02:48:25;;;;;;;;;;;13.50;99.90;;;;;;5072696;28;19974;-73
2022/09/04 02:51:20;;;;;;;;;;;13.50;99.90;;;;;;5081267;28;19955;-72
2022/09/04 02:54:10;;;;;;;;;;;13.50;99.90;;;;;;5055518;28;19931;-74
2022/09/04 02:57:01;;;;;;;;;;;13.50;99.90;;;;;;5078149;28;19924;-72
2022/09/04 02:59:51;;;;;;;;;;;13.50;99.90;;;;;;5058600;28;20295;-73
2022/09/04 03:02:29;;;;;;;;;;;13.50;99.90;;;;;;5075651;28;19994;-72
2022/09/04 03:05:04;;;;;;;;;;;13.50;99.90;;;;;;5078725;28;19931;-72
2022/09/04 03:07:44;;;;;;;;;;;13.50;99.90;;;;;;5078561;28;20420;-72
2022/09/04 03:10:17;;;;;;;;;;;13.40;99.90;;;;;;5083986;28;19924;-72
2022/09/04 03:12:55;;;;;;;;;;;13.40;99.90;;;;;;5084197;28;19936;-73
2022/09/04 03:15:27;;;;;;;;;;;13.40;99.90;;;;;;5081957;28;20309;-72
2022/09/04 03:18:03;;;;;;;;;;;13.40;99.90;;;;;;5083771;28;19928;-73
2022/09/04 03:20:40;;;;;;;;;;;13.40;99.90;;;;;;5081126;28;19924;-73
2022/09/04 03:23:31;;;;;;;;;;;13.40;99.90;;;;;;5085556;28;19963;-72
2022/09/04 03:26:15;;;;;;;;;;;13.40;99.90;;;;;;5064508;28;20308;-72
2022/09/04 03:28:53;;;;;;;;;;;13.30;99.90;;;;;;5082200;28;19931;-73
2022/09/04 03:31:39;;;;;;;;;;;13.20;99.90;;;;;;5080409;28;19932;-73
2022/09/04 03:34:17;;;;;;;;;;;13.20;99.90;;;;;;5094023;28;19924;-74
2022/09/04 03:37:27;;;;;;;;;;;13.20;99.90;;;;;;5062165;28;19924;-73
2022/09/04 03:40:06;;;;;;;;;;;13.10;99.90;;;;;;5043098;28;20450;-73
2022/09/04 03:42:41;;;;;;;;;;;13.10;99.90;;;;;;5041999;28;19932;-72
2022/09/04 03:45:23;;;;;;;;;;;13.10;99.90;;;;;;5058981;28;19931;-73
2022/09/04 03:48:01;;;;;;;;;;;13.10;99.90;;;;;;5081244;28;19934;-71
2022/09/04 03:50:59;;;;;;;;;;;13.10;99.90;;;;;;5082323;28;19924;-72
2022/09/04 03:53:38;;;;;;;;;;;13.10;99.90;;;;;;5083710;28;19928;-73
2022/09/04 03:56:12;;;;;;;;;;;13.10;99.90;;;;;;5084341;28;19930;-72
2022/09/04 03:58:44;;;;;;;;;;;13.00;99.90;;;;;;5068124;28;20489;-72
2022/09/04 04:01:16;;;;;;;;;;;13.00;99.90;;;;;;5084305;28;19935;-72
2022/09/04 04:03:48;;;;;;;;;;;12.90;99.90;;;;;;5085305;28;20310;-73
2022/09/04 04:06:26;;;;;;;;;;;12.90;99.90;;;;;;5083064;28;20401;-72
2022/09/04 04:09:17;;;;;;;;;;;12.90;99.90;;;;;;5060643;28;20340;-73
2022/09/04 04:11:53;;;;;;;;;;;12.90;99.90;;;;;;5079624;28;20393;-73
2022/09/04 04:14:25;;;;;;;;;;;12.90;99.90;;;;;;5067254;28;19928;-72
2022/09/04 04:17:17;;;;;;;;;;;12.90;99.90;;;;;;5082725;28;19964;-73
2022/09/04 04:19:51;;;;;;;;;;;12.90;99.90;;;;;;5051254;28;19931;-72
2022/09/04 04:22:29;;;;;;;;;;;12.90;99.90;;;;;;5073467;28;19924;-72
2022/09/04 04:25:26;;;;;;;;;;;12.90;99.90;;;;;;5084094;28;20300;-72
2022/09/04 04:27:53;;;;;;;;;;;12.90;99.90;;;;;;5081657;28;19925;-73
2022/09/04 04:30:28;;;;;;;;;;;12.90;99.90;;;;;;5052520;28;19939;-72
2022/09/04 04:33:10;;;;;;;;;;;12.80;99.90;;;;;;5053716;28;19931;-72
2022/09/04 04:35:45;;;;;;;;;;;12.80;99.90;;;;;;5076446;28;19924;-73
2022/09/04 04:38:20;;;;;;;;;;;12.80;99.90;;;;;;5054426;28;19929;-72
2022/09/04 04:40:51;;;;;;;;;;;12.80;99.90;;;;;;5078771;28;19924;-72
2022/09/04 04:43:35;;;;;;;;;;;12.90;99.90;;;;;;5060660;28;19930;-72
2022/09/04 04:46:16;;;;;;;;;;;12.90;99.90;;;;;;5071886;28;19925;-72
2022/09/04 04:48:57;;;;;;;;;;;12.90;99.90;;;;;;5068550;28;19924;-72
2022/09/04 04:51:44;;;;;;;;;;;12.90;99.90;;;;;;5053192;28;19924;-73
2022/09/04 04:54:35;;;;;;;;;;;12.90;99.90;;;;;;5051836;28;19924;-72
2022/09/04 04:57:17;;;;;;;;;;;12.90;99.90;;;;;;5041991;28;19924;-72
2022/09/04 05:00:14;;;;;;;;;;;13.00;99.90;;;;;;5075571;28;20375;-72
2022/09/04 05:02:49;;;;;;;;;;;13.00;99.90;;;;;;5080330;28;19925;-72
2022/09/04 05:05:27;;;;;;;;;;;13.00;99.90;;;;;;5091705;28;19930;-72
2022/09/04 05:08:08;;;;;;;;;;;13.00;99.90;;;;;;5074294;28;19924;-73
2022/09/04 05:10:40;;;;;;;;;;;13.00;99.90;;;;;;5071093;28;19928;-72
2022/09/04 05:13:22;;;;;;;;;;;12.90;99.90;;;;;;5092368;28;19924;-72
2022/09/04 05:16:07;;;;;;;;;;;12.90;99.90;;;;;;5072622;28;19925;-72
2022/09/04 05:18:54;;;;;;;;;;;12.90;99.90;;;;;;5055622;28;19924;-73
2022/09/04 05:21:45;;;;;;;;;;;12.90;99.90;;;;;;5080328;28;19924;-72
2022/09/04 05:24:21;;;;;;;;;;;12.90;99.90;;;;;;5092760;28;19966;-72
2022/09/04 05:26:52;;;;;;;;;;;12.90;99.90;;;;;;5089522;28;19924;-73
2022/09/04 05:29:46;;;;;;;;;;;13.00;99.90;;;;;;5082477;28;19924;-74
2022/09/04 05:32:27;;;;;;;;;;;13.00;99.90;;;;;;5083868;28;19924;-73
2022/09/04 05:35:17;;;;;;;;;;;13.00;99.90;;;;;;5083392;28;19930;-72
2022/09/04 05:38:04;;;;;;;;;;;13.00;99.90;;;;;;5087477;28;19932;-73
2022/09/04 05:40:44;;;;;;;;;;;13.00;99.90;;;;;;5071618;28;19928;-72
2022/09/04 05:43:21;;;;;;;;;;;13.10;99.90;;;;;;5052523;28;19979;-73
2022/09/04 05:46:03;;;;;;;;;;;13.00;99.90;;;;;;5056235;28;19924;-72
2022/09/04 05:48:44;;;;;;;;;;;13.00;99.90;;;;;;5067261;28;19931;-74
2022/09/04 05:51:35;;;;;;;;;;;13.00;99.90;;;;;;5071101;28;19956;-72
2022/09/04 05:54:25;;;;;;;;;;;13.10;99.90;;;;;;5070590;28;20267;-75
2022/09/04 05:57:16;;;;;;;;;;;13.10;99.90;;;;;;5091420;28;19931;-71
2022/09/04 06:00:03;;;;;;;;;;;13.10;99.90;;;;;;5083176;28;19924;-71
2022/09/04 06:02:46;;;;;;;;;;;13.20;99.90;;;;;;5070985;28;20412;-73
2022/09/04 06:05:28;;;;;;;;;;;13.20;99.90;;;;;;5088277;28;20395;-73
2022/09/04 06:08:15;;;;;;;;;;;13.30;99.90;;;;;;5065621;28;19925;-72
2022/09/04 06:11:07;;;;;;;;;;;13.30;99.90;;;;;;5070130;28;20365;-73
2022/09/04 06:13:44;;;;;;;;;;;13.40;99.90;;;;;;5063575;28;20406;-73
2022/09/04 06:16:36;;;;;;;;;;;13.50;99.90;;;;;;5064221;28;19928;-73
2022/09/04 06:19:11;;;;;;;;;;;13.60;99.90;;;;;;5032302;28;19925;-73
2022/09/04 06:22:01;;;;;;;;;;;13.70;99.90;;;;;;5081197;28;20379;-72
2022/09/04 06:24:51;;;;;;;;;;;13.80;99.90;;;;;;5085470;28;19925;-73
2022/09/04 06:27:18;;;;;;;;;;;13.90;99.90;;;;;;5071924;28;19925;-73
2022/09/04 06:29:50;;;;;;;;;;;14.00;99.90;;;;;;5085523;28;19924;-73
2022/09/04 06:32:40;;;;;;;;;;;14.00;99.90;;;;;;5073446;28;19924;-72
2022/09/04 06:35:22;;;;;;;;;;;14.10;99.90;;;;;;5071643;28;19956;-72
2022/09/04 06:37:48;;;;;;;;;;;14.20;99.90;;;;;;5088509;28;20283;-73
2022/09/04 06:40:37;;;;;;;;;;;14.20;99.90;;;;;;5076120;28;19924;-72
2022/09/04 06:43:21;;;;;;;;;;;14.30;99.90;;;;;;5069043;28;20019;-73
2022/09/04 06:46:07;;;;;;;;;;;14.40;99.90;;;;;;5059879;28;20290;-72
2022/09/04 06:49:00;;;;;;;;;;;14.40;99.90;;;;;;5082594;28;19924;-73
2022/09/04 06:51:51;;;;;;;;;;;14.50;99.90;;;;;;5060270;28;19924;-73
2022/09/04 06:54:28;;;;;;;;;;;14.60;99.90;;;;;;5058905;28;19956;-73
2022/09/04 06:57:19;;;;;;;;;;;14.60;99.90;;;;;;5054320;28;19924;-74
2022/09/04 06:59:55;;;;;;;;;;;14.70;99.90;;;;;;5054169;28;19939;-73
2022/09/04 07:02:27;;;;;;;;;;;14.80;99.90;;;;;;5063089;28;19924;-73
2022/09/04 07:05:08;;;;;;;;;;;14.90;99.90;;;;;;5074324;28;19937;-72
2022/09/04 07:07:40;;;;;;;;;;;14.90;99.90;;;;;;5072834;28;19925;-72
2022/09/04 07:10:16;;;;;;;;;;;15.00;99.90;;;;;;5074064;28;19925;-73
2022/09/04 07:13:04;;;;;;;;;;;15.10;99.90;;;;;;5058313;28;19924;-73
2022/09/04 07:15:47;;;;;;;;;;;15.10;99.90;;;;;;5072153;28;20319;-74
2022/09/04 07:18:32;;;;;;;;;;;15.20;99.90;;;;;;5074027;28;20306;-73
2022/09/04 07:21:14;;;;;;;;;;;15.30;99.90;;;;;;5084597;28;19925;-72
2022/09/04 07:23:55;;;;;;;;;;;15.50;99.90;;;;;;5067090;28;20406;-73
2022/09/04 07:26:52;;;;;;;;;;;15.60;99.90;;;;;;5078157;28;20027;-73
2022/09/04 07:29:33;;;;;;;;;;;15.80;99.90;;;;;;5073781;28;19924;-73
2022/09/04 07:32:28;;;;;;;;;;;15.90;99.90;;;;;;5073801;28;19970;-73
2022/09/04 07:35:15;;;;;;;;;;;16.10;99.90;;;;;;5054164;28;19925;-73
2022/09/04 07:37:46;;;;;;;;;;;16.20;99.90;;;;;;5063165;28;19931;-73
2022/09/04 07:40:20;;;;;;;;;;;16.40;99.90;;;;;;5080768;28;19963;-73
2022/09/04 07:42:47;;;;;;;;;;;16.50;99.90;;;;;;5060266;28;20367;-73
2022/09/04 07:45:37;;;;;;;;;;;16.60;99.90;;;;;;5072645;28;19947;-72
2022/09/04 07:48:18;;;;;;;;;;;16.70;99.90;;;;;;5072051;28;20018;-73
2022/09/04 07:51:09;;;;;;;;;;;16.90;99.90;;;;;;5070694;28;19967;-74
2022/09/04 07:53:50;;;;;;;;;;;17.00;99.90;;;;;;5072163;28;19933;-73
2022/09/04 07:56:34;;;;;;;;;;;17.10;99.90;;;;;;5069137;28;19946;-73
2022/09/04 07:59:11;;;;;;;;;;;17.30;99.90;;;;;;5063484;28;19932;-73
2022/09/04 08:01:40;;;;;;;;;;;17.40;99.90;;;;;;5069093;28;19928;-73
2022/09/04 08:04:44;;;;;;;;;;;17.50;99.90;;;;;;5074500;28;20298;-73
2022/09/04 08:07:47;;;;;;;;;;;17.60;99.90;;;;;;5072450;28;19936;-73
2022/09/04 08:10:19;;;;;;;;;;;17.60;99.90;;;;;;5067260;28;19924;-73
2022/09/04 08:12:55;;;;;;;;;;;17.70;99.90;;;;;;5051935;28;19924;-72
2022/09/04 08:15:48;;;;;;;;;;;17.90;99.90;;;;;;5071024;28;19992;-73
2022/09/04 08:18:28;;;;;;;;;;;18.00;99.90;;;;;;5072059;28;19925;-74
2022/09/04 08:21:09;;;;;;;;;;;18.00;99.90;;;;;;5066513;28;19924;-72
2022/09/04 08:23:52;;;;;;;;;;;18.20;99.90;;;;;;5072607;28;19925;-73
2022/09/04 08:26:36;;;;;;;;;;;18.30;99.90;;;;;;5067939;28;20031;-73
2022/09/04 08:29:27;;;;;;;;;;;18.40;99.90;;;;;;5063316;28;19967;-72
2022/09/04 08:32:03;;;;;;;;;;;18.50;99.90;;;;;;5075920;28;20457;-73
2022/09/04 08:34:51;;;;;;;;;;;18.60;99.90;;;;;;5059711;28;19931;-73
2022/09/04 08:37:26;;;;;;;;;;;18.70;99.90;;;;;;5069915;28;19925;-73
2022/09/04 08:40:16;;;;;;;;;;;18.80;99.90;;;;;;5070232;28;19924;-73
2022/09/04 08:43:03;;;;;;;;;;;19.00;99.90;;;;;;5069615;28;19925;-73
2022/09/04 08:45:59;;;;;;;;;;;19.10;99.90;;;;;;5075232;28;20395;-73
2022/09/04 08:48:44;;;;;;;;;;;19.10;99.90;;;;;;5033444;28;19925;-73
2022/09/04 08:51:15;;;;;;;;;;;19.20;99.90;;;;;;5080648;28;19924;-73
2022/09/04 08:54:06;;;;;;;;;;;19.30;99.90;;;;;;5074516;28;20426;-73
2022/09/04 08:56:47;;;;;;;;;;;19.40;99.90;;;;;;5068223;28;20392;-73
2022/09/04 08:59:40;;;;;;;;;;;19.50;99.90;;;;;;5071687;28;20067;-73
2022/09/04 09:02:33;;;;;;;;;;;19.60;99.90;;;;;;5070860;28;19932;-73
2022/09/04 09:05:24;;;;;;;;;;;19.60;99.90;;;;;;5076224;28;20023;-73
2022/09/04 09:08:05;;;;;;;;;;;19.70;99.90;;;;;;5070066;28;19928;-72
2022/09/04 09:10:51;;;;;;;;;;;19.90;99.90;;;;;;5069313;28;20312;-73
2022/09/04 09:13:40;;;;;;;;;;;20.00;99.90;;;;;;5068891;28;19963;-73
2022/09/04 09:16:07;;;;;;;;;;;20.10;99.90;;;;;;5069839;28;19998;-73
2022/09/04 09:18:44;;;;;;;;;;;20.20;99.90;;;;;;5074686;28;19924;-74
2022/09/04 09:21:37;;;;;;;;;;;20.30;99.90;;;;;;5070697;28;20178;-73
2022/09/04 09:24:21;;;;;;;;;;;20.30;99.90;;;;;;5070284;28;19931;-77
2022/09/04 09:27:11;;;;;;;;;;;20.50;99.90;;;;;;5084973;28;19935;-73
2022/09/04 09:29:52;;;;;;;;;;;20.60;99.90;;;;;;5067724;28;19931;-73
2022/09/04 09:32:43;;;;;;;;;;;20.60;99.90;;;;;;5067426;28;19944;-73
2022/09/04 09:35:36;;;;;;;;;;;20.50;99.90;;;;;;5068543;28;22066;-73
2022/09/04 09:38:10;;;;;;;;;;;20.40;99.90;;;;;;5068034;28;19971;-73
2022/09/04 09:41:02;;;;;;;;;;;20.50;99.90;;;;;;5068487;28;19929;-73
2022/09/04 09:43:49;;;;;;;;;;;20.60;99.90;;;;;;5075111;28;19930;-73
2022/09/04 09:46:40;;;;;;;;;;;20.70;99.90;;;;;;5051357;28;19925;-74
2022/09/04 09:49:34;;;;;;;;;;;20.90;99.90;;;;;;5082951;28;19924;-73
2022/09/04 09:52:06;;;;;;;;;;;20.90;99.90;;;;;;5081013;28;20607;-73
2022/09/04 09:54:54;;;;;;;;;;;21.00;99.90;;;;;;5076845;28;20409;-73
2022/09/04 09:57:38;;;;;;;;;;;21.10;99.90;;;;;;5084015;28;19931;-74
2022/09/04 10:00:11;;;;;;;;;;;21.20;99.90;;;;;;5086164;28;19935;-74
2022/09/04 10:03:02;;;;;;;;;;;21.30;99.90;;;;;;5082661;28;19935;-73
2022/09/04 10:05:36;;;;;;;;;;;21.50;99.90;;;;;;5081885;28;19963;-73
2022/09/04 10:08:13;;;;;;;;;;;21.50;99.90;;;;;;5079955;28;19924;-74
2022/09/04 10:10:58;;;;;;;;;;;21.60;99.90;;;;;;5065333;28;19931;-74
2022/09/04 10:13:49;;;;;;;;;;;21.60;99.90;;;;;;5073419;28;19929;-74
2022/09/04 10:16:25;;;;;;;;;;;21.70;99.90;;;;;;5087067;28;19931;-73
2022/09/04 10:19:17;;;;;;;;;;;21.80;99.90;;;;;;5089455;28;19932;-73
2022/09/04 10:21:49;;;;;;;;;;;21.80;99.90;;;;;;5064725;28;19951;-73
2022/09/04 10:24:36;;;;;;;;;;;21.80;99.90;;;;;;5088430;28;19924;-73
2022/09/04 10:27:26;;;;;;;;;;;21.90;99.90;;;;;;5063273;28;19925;-73
2022/09/04 10:29:58;;;;;;;;;;;21.90;99.90;;;;;;5083758;28;19924;-73
2022/09/04 10:32:35;;;;;;;;;;;22.10;99.90;;;;;;5084554;28;19963;-73
2022/09/04 10:35:24;;;;;;;;;;;22.10;99.90;;;;;;5090111;28;20410;-73
2022/09/04 10:37:59;;;;;;;;;;;22.20;99.90;;;;;;5063121;28;20425;-73
2022/09/04 10:40:42;;;;;;;;;;;22.20;99.90;;;;;;5082834;28;19935;-73
2022/09/04 10:43:29;;;;;;;;;;;22.40;99.90;;;;;;5088414;28;19925;-74
2022/09/04 10:46:19;;;;;;;;;;;22.50;99.90;;;;;;5081377;28;19930;-73
2022/09/04 10:48:59;;;;;;;;;;;22.70;99.90;;;;;;5084602;28;19934;-73
2022/09/04 10:51:33;;;;;;;;;;;22.80;99.90;;;;;;5086541;28;20416;-73
2022/09/04 10:54:20;;;;;;;;;;;22.60;99.90;;;;;;5078296;28;19924;-73
2022/09/04 10:56:53;;;;;;;;;;;22.60;99.90;;;;;;5086203;28;20286;-73
2022/09/04 10:59:38;;;;;;;;;;;22.40;99.90;;;;;;5080673;28;19930;-73
2022/09/04 11:02:24;;;;;;;;;;;22.40;99.90;;;;;;5077392;28;19931;-73
2022/09/04 11:05:17;;;;;;;;;;;22.60;99.90;;;;;;5076253;28;19928;-74
2022/09/04 11:08:05;;;;;;;;;;;22.80;99.90;;;;;;5061869;28;20379;-74
2022/09/04 11:10:34;;;;;;;;;;;23.00;99.90;;;;;;5067945;28;20081;-73
2022/09/04 11:13:09;;;;;;;;;;;23.20;99.90;;;;;;5080649;28;19931;-74
2022/09/04 11:15:57;;;;;;;;;;;23.30;99.90;;;;;;5089210;28;19954;-74
2022/09/04 11:18:40;;;;;;;;;;;23.30;99.90;;;;;;5061574;28;19929;-74
2022/09/04 11:21:31;;;;;;;;;;;23.20;99.90;;;;;;5081937;28;19931;-73
2022/09/04 11:24:20;;;;;;;;;;;23.20;99.90;;;;;;5080400;28;19951;-73
2022/09/04 11:27:09;;;;;;;;;;;23.20;99.90;;;;;;5077114;28;19924;-74
2022/09/04 11:30:01;;;;;;;;;;;23.30;99.90;;;;;;5098007;28;19928;-74
2022/09/04 11:32:38;;;;;;;;;;;23.40;99.90;;;;;;5102498;28;20328;-73
2022/09/04 11:35:05;;;;;;;;;;;23.50;99.90;;;;;;5088034;28;19924;-74
2022/09/04 11:37:56;;;;;;;;;;;23.60;99.90;;;;;;5086285;28;20689;-73
2022/09/04 11:40:25;;;;;;;;;;;23.70;99.90;;;;;;5091169;28;19957;-74
2022/09/04 11:43:07;;;;;;;;;;;23.90;99.90;;;;;;5081850;28;19928;-73
2022/09/04 11:45:42;;;;;;;;;;;24.00;99.90;;;;;;5089014;28;19925;-74
2022/09/04 11:48:15;;;;;;;;;;;24.10;99.90;;;;;;5079834;28;19925;-74
2022/09/04 11:51:02;;;;;;;;;;;24.10;99.90;;;;;;5074865;28;20015;-72
2022/09/04 11:53:40;;;;;;;;;;;24.20;99.90;;;;;;5084677;28;20426;-72
2022/09/04 11:56:31;;;;;;;;;;;24.20;99.90;;;;;;5069569;28;19924;-74
2022/09/04 11:59:19;;;;;;;;;;;24.20;99.90;;;;;;5073232;28;20014;-73
2022/09/04 12:02:09;;;;;;;;;;;24.20;99.90;;;;;;5073467;28;19931;-74
2022/09/04 12:04:39;;;;;;;;;;;24.10;99.90;;;;;;5072924;28;20019;-74
2022/09/04 12:07:12;;;;;;;;;;;24.00;99.90;;;;;;5080451;28;20289;-74
2022/09/04 12:10:03;;;;;;;;;;;24.10;99.90;;;;;;5079543;28;19931;-74
2022/09/04 12:12:56;;;;;;;;;;;24.20;99.90;;;;;;5075809;28;19925;-74
2022/09/04 12:15:43;;;;;;;;;;;24.30;99.90;;;;;;5079400;28;19935;-73
2022/09/04 12:18:15;;;;;;;;;;;24.40;99.90;;;;;;5080983;28;19924;-74
2022/09/04 12:20:47;;;;;;;;;;;24.50;99.90;;;;;;5068093;28;19955;-74
2022/09/04 12:23:46;;;;;;;;;;;24.60;99.90;;;;;;5073823;28;19954;-74
2022/09/04 12:26:23;;;;;;;;;;;24.50;99.90;;;;;;5075817;28;19928;-74
2022/09/04 12:28:59;;;;;;;;;;;24.70;99.90;;;;;;5082572;28;20447;-74
2022/09/04 12:31:50;;;;;;;;;;;24.80;99.90;;;;;;5078694;28;19968;-74
2022/09/04 12:34:17;;;;;;;;;;;24.70;99.90;;;;;;5067319;28;19924;-74
2022/09/04 12:37:04;;;;;;;;;;;24.60;99.90;;;;;;5068878;28;19924;-74
2022/09/04 12:39:40;;;;;;;;;;;24.70;99.90;;;;;;5054953;28;20317;-73
2022/09/04 12:42:21;;;;;;;;;;;24.70;99.90;;;;;;5066671;28;20390;-74
2022/09/04 12:44:57;;;;;;;;;;;24.80;99.90;;;;;;5074683;28;19928;-74
2022/09/04 12:47:35;;;;;;;;;;;24.80;99.90;;;;;;5076818;28;19973;-74
2022/09/04 12:50:08;;;;;;;;;;;24.80;99.90;;;;;;5073895;28;20022;-73
2022/09/04 12:52:43;;;;;;;;;;;24.80;99.90;;;;;;5061259;28;19932;-72
2022/09/04 12:55:33;;;;;;;;;;;24.80;99.90;;;;;;5071546;28;19928;-73
2022/09/04 12:58:23;;;;;;;;;;;24.90;99.90;;;;;;5069940;28;20482;-72
2022/09/04 13:01:07;;;;;;;;;;;25.00;99.90;;;;;;5068768;28;20023;-73
2022/09/04 13:03:41;;;;;;;;;;;25.00;99.90;;;;;;5073352;28;19929;-71
2022/09/04 13:06:26;;;;;;;;;;;25.20;99.90;;;;;;5058396;28;19938;-72
2022/09/04 13:09:00;;;;;;;;;;;25.30;99.90;;;;;;5064610;28;20514;-73
2022/09/04 13:11:39;;;;;;;;;;;25.40;99.90;;;;;;5072312;28;19941;-73
2022/09/04 13:14:14;;;;;;;;;;;25.40;99.90;;;;;;5071299;28;19924;-73
2022/09/04 13:17:01;;;;;;;;;;;25.40;99.90;;;;;;5066690;28;19935;-73
2022/09/04 13:19:47;;;;;;;;;;;25.50;99.90;;;;;;5068389;28;20314;-73
2022/09/04 13:22:38;;;;;;;;;;;25.60;99.90;;;;;;5069509;28;19924;-73
2022/09/04 13:25:21;;;;;;;;;;;25.60;99.90;;;;;;5068709;28;20027;-73
2022/09/04 13:27:56;;;;;;;;;;;25.70;99.90;;;;;;5071112;28;19924;-73
2022/09/04 13:30:28;;;;;;;;;;;25.60;99.90;;;;;;5083813;28;19928;-73
2022/09/04 13:33:03;;;;;;;;;;;25.50;99.90;;;;;;5071163;28;20033;-73
2022/09/04 13:35:48;;;;;;;;;;;25.50;99.90;;;;;;5073156;28;19932;-73
2022/09/04 13:38:32;;;;;;;;;;;25.40;99.90;;;;;;5068326;28;19932;-73
2022/09/04 13:41:26;;;;;;;;;;;25.50;99.90;;;;;;5050258;28;20302;-73
2022/09/04 13:44:17;;;;;;;;;;;25.70;99.90;;;;;;5076087;28;19939;-73
2022/09/04 13:46:44;;;;;;;;;;;25.90;99.90;;;;;;5072765;28;19956;-72
2022/09/04 13:49:16;;;;;;;;;;;26.00;99.90;;;;;;5078097;28;20421;-73
2022/09/04 13:51:52;;;;;;;;;;;25.90;98.20;;;;;;5066495;28;19954;-72
2022/09/04 13:54:26;;;;;;;;;;;26.00;98.90;;;;;;5069548;28;19928;-73
2022/09/04 13:57:13;;;;;;;;;;;26.00;97.80;;;;;;5073022;28;19929;-73
2022/09/04 13:59:48;;;;;;;;;;;26.10;98.20;;;;;;5067270;28;19932;-73
2022/09/04 14:02:23;;;;;;;;;;;26.00;97.10;;;;;;5069496;28;20599;-73
2022/09/04 14:04:56;;;;;;;;;;;26.00;97.10;;;;;;5055647;28;20240;-73
2022/09/04 14:07:30;;;;;;;;;;;26.00;97.30;;;;;;5072210;28;19928;-72
2022/09/04 14:10:19;;;;;;;;;;;26.10;95.80;;;;;;5070321;28;19935;-71
2022/09/04 14:13:06;;;;;;;;;;;26.00;96.70;;;;;;5072521;28;20406;-73
2022/09/04 14:15:39;;;;;;;;;;;25.80;96.10;;;;;;5050464;28;20520;-73
2022/09/04 14:18:12;;;;;;;;;;;26.00;96.90;;;;;;5070739;28;19935;-73
2022/09/04 14:20:56;;;;;;;;;;;26.00;95.70;;;;;;5070678;28;19931;-73
2022/09/04 14:23:36;;;;;;;;;;;26.00;95.50;;;;;;5070198;28;19928;-71
2022/09/04 14:26:19;;;;;;;;;;;26.20;94.60;;;;;;5074690;28;19929;-72
2022/09/04 14:28:50;;;;;;;;;;;26.30;95.00;;;;;;5076474;28;19939;-73
2022/09/04 14:31:22;;;;;;;;;;;26.50;95.50;;;;;;5067129;28;20302;-73
2022/09/04 14:33:57;;;;;;;;;;;26.40;94.50;;;;;;5073509;28;20016;-73
2022/09/04 14:36:45;;;;;;;;;;;26.50;93.30;;;;;;5039136;28;19932;-71
2022/09/04 14:39:26;;;;;;;;;;;26.30;94.70;;;;;;5034671;28;19935;-74
2022/09/04 14:41:59;;;;;;;;;;;26.10;93.50;;;;;;5021413;28;19925;-73
2022/09/04 14:44:41;;;;;;;;;;;26.40;94.30;;;;;;5048217;28;19929;-72
2022/09/04 14:47:15;;;;;;;;;;;26.60;94.00;;;;;;5045835;28;19929;-73
2022/09/04 14:49:48;;;;;;;;;;;26.80;93.70;;;;;;5063914;28;20429;-74
2022/09/04 14:52:28;;;;;;;;;;;27.20;93.20;;;;;;5059212;28;19925;-74
2022/09/04 14:55:00;;;;;;;;;;;27.50;92.80;;;;;;5063226;28;19995;-74
2022/09/04 14:57:41;;;;;;;;;;;27.70;92.30;;;;;;5048582;28;20387;-73
2022/09/04 15:00:16;;;;;;;;;;;28.00;92.30;;;;;;5065982;28;19953;-73
2022/09/04 15:03:06;;;;;;;;;;;28.20;90.50;;;;;;5061544;28;19928;-72
2022/09/04 15:05:47;;;;;;;;;;;28.40;90.10;;;;;;5066880;28;20379;-73
2022/09/04 15:08:32;;;;;;;;;;;28.50;90.10;;;;;;5053008;28;19939;-73
2022/09/04 15:11:07;;;;;;;;;;;28.60;90.90;;;;;;5051494;28;19925;-73
2022/09/04 15:13:49;;;;;;;;;;;28.80;90.40;;;;;;5050267;28;19925;-72
2022/09/04 15:16:27;;;;;;;;;;;29.10;90.80;;;;;;5052785;28;19925;-72
2022/09/04 15:18:57;;;;;;;;;;;29.20;87.70;;;;;;5053282;28;19963;-73
2022/09/04 15:21:35;;;;;;;;;;;29.30;87.80;;;;;;5050945;28;20368;-73
2022/09/04 15:24:12;;;;;;;;;;;29.60;87.60;;;;;;5048884;28;19933;-72
2022/09/04 15:26:54;;;;;;;;;;;29.80;86.00;;;;;;5052059;28;19931;-73
2022/09/04 15:29:37;;;;;;;;;;;30.00;84.40;;;;;;5049977;28;19932;-73
2022/09/04 15:32:08;;;;;;;;;;;30.20;83.00;;;;;;5053868;28;20431;-73
2022/09/04 15:34:36;;;;;;;;;;;30.50;84.30;;;;;;5053441;28;19934;-73
2022/09/04 15:37:13;;;;;;;;;;;30.30;82.30;;;;;;5054021;28;19931;-73